Airfield :
LOGIN :

Register | Disclaimer

   EN    FR    IT 

 










Legend :    VFR   Marginal VFR   IFR   Intensive IFR   Very Intensive IFR
Visi :
Ceiling :
>= 8 km
>= 3000ft
5 to 8 km
1000 to 3000 ft
1500m to 5 km
500 to 1000 ft
800 to 1500m
200 to 500 ft
< 800m
< 200 ft
Symbols :   Thunderstorms  Fog  Heavy snow  Heavy precipitations  Wind > 20 kt
SIGMETs :     Misc.  Thunderstorms  Icing  Turbulence  Mountain Waves  Volcanic Ashes







- Airport Elevation : 1299 ft


EDTY - Adolf Würth

CURRENT METAR :
  • 101650Z 25009KT 9999 -SHRA SCT036 BKN044 OVC064 04/01 Q1020

EXPIRED METARs :
  • 101620Z 24008KT CAVOK 03/02 Q1020
  • 101550Z 25007KT 9999 -SHRA FEW036 BKN051 BKN079 04/02 Q1020
  • 101520Z 25005KT 9999 FEW037 SCT050 BKN063 03/03 Q1020
  • 101450Z 26008KT 240V300 9999 -SHRA FEW010 SCT018 BKN066 03/03 Q1020
  • 101420Z 26013KT 9999 -SHRA FEW007 BKN023 03/03 Q1020

TAF TAF EDTY
Valid from the 10 at 15:00 until the 11 at 00:00 UTC


101400Z 1015/1024 28010KT 9999 BKN020
TEMPO 1015/1020 29015G25KT 2500 SHSNRA BKN012CB
No reported NOTAMs for that airfield.
2 SIGMETs reported for the Langen FIR (EDGG) :
 
Severe turbulence
EDGG SIGMET 2 VALID 101704/102000 EDZF
EDGG LANGEN FIR SEV TURB FCST APRX 40NM WID LINE BTN N5103 E00555 - N4755 E00906 FL180/240 MOV E NC=
Severe turbulence
EDGG SIGMET 1 VALID 101413/101700 EDZF
EDGG LANGEN FIR SEV TURB OBS SW OF LINE N5025 E00625 - N4830 E00935 FL180/220 STNR NC=



MET'MAP, your aeronautical weather chart ! - Copyright ORBIFLY December 2007 - Disclaimer

ORBIFLY MET'MAP TEAM :

Programming & Development : Alexandra Zaïnal
Concept & Development : Baudouin d'Aumeries
Co-Development & Prog : Marc-Olivier Méhu
Technical & hardware support : Manuel Goepfert

Contact : metmap@orbifly.com




SOURCES & CREDITS :

   NOAA